MOTOCROSSTIME - MXGP OF SWEDEN - RESULTS

MXGP

Pos Nr Rider Nat. Fed. Bike Time laps Diff. First Diff. Prev. Bestlaptime in lap Speed
1 461 Febvre, Romain FRA FFM Yamaha 35:40.541 18 0:00.000 0:00.000 1:51.362 2 49.4
2 243 Gajser, Tim SLO AMZS Honda 35:44.943 18 0:04.402 0:04.402 1:51.504 2 49.3
3 21 Paulin, Gautier FRA MCM Husqvarna 35:53.551 18 0:13.010 0:08.608 1:52.126 6 49.1
4 25 Desalle, Clement BEL FMB Kawasaki 35:56.792 18 0:16.251 0:03.241 1:51.989 8 49.1
5 259 Coldenhoff, Glenn NED KNMV KTM 35:58.689 18 0:18.148 0:01.897 1:52.166 6 49.1
6 89 Van Horebeek, Jeremy BEL FMB Yamaha 36:02.060 18 0:21.519 0:03.371 1:52.526 7 48.9
7 222 Cairoli, Antonio ITA FMI KTM 36:16.381 18 0:35.840 0:14.321 1:52.855 4 48.8
8 99 Anstie, Max GBR ACU Husqvarna 36:19.527 18 0:38.986 0:03.146 1:52.854 2 48.8
9 27 Jasikonis, Arminas LTU LMSF Suzuki 36:21.040 18 0:40.499 0:01.513 1:52.278 5 49
10 777 Bobryshev, Evgeny RUS MFR Honda 36:24.944 18 0:44.403 0:03.904 1:52.921 10 48.7
11 7 Leok, Tanel EST EMF Husqvarna 36:26.041 18 0:45.500 0:01.097 1:53.242 7 48.6
12 100 Searle, Tommy GBR ACU Kawasaki 36:27.143 18 0:46.602 0:01.102 1:53.764 5 48.4
13 22 Strijbos, Kevin BEL FMB Suzuki 36:29.466 18 0:48.925 0:02.323 1:51.871 9 49.2
14 24 Simpson, Shaun GBR ACU Yamaha 36:32.961 18 0:52.420 0:03.495 1:53.167 13 48.6
15 12 Nagl, Maximilian GER DMSB Husqvarna 36:53.054 18 1:12.513 0:20.093 1:52.903 9 48.7
16 151 Kullas, Harri EST EMF Husqvarna 36:54.822 18 1:14.281 0:01.768 1:54.417 8 48.1
17 664 Bengtsson, Filip SWE SVEMO KTM 37:11.425 18 1:30.884 0:16.603 1:54.243 8 48.2
18 249 Larsen, Nikolaj DEN DMU KTM 37:26.095 18 1:45.554 0:14.670 1:54.723 5 48
19 49 Irt, Jernej SLO AMZS Husqvarna 37:36.866 18 1:56.325 0:10.771 1:55.509 5 47.6
20 824 Kouwenberg, Nick NED KNMV Yamaha 35:41.430 17 1 lap 1 lap 1:56.310 7 47.3
21 71 Graulus, Damon BEL FMB Honda 35:42.387 17 1 lap 0:00.957 1:55.166 5 47.8
22 9 de Dycker, Ken BEL FMB Honda 36:02.313 17 1 lap 0:19.926 1:54.632 4 48
23 191 Romancik, Jaromir CZE ACCR KTM 36:10.227 17 1 lap 0:07.914 1:57.066 10 47
24 30 Hjortmarker, Eddie SWE SVEMO Suzuki 36:36.533 17 1 lap 0:26.306 1:58.162 9 46.6
25 90 Wallin, Anton SWE SVEMO Yamaha 37:31.273 17 1 lap 0:54.740 1:59.218 7 46.2
26 77 Lupino, Alessandro ITA FMI Honda 32:36.664 16 2 laps 1 lap 1:52.598 3 48.9
27 113 Wahl, Henrik NOR NMF Honda 36:46.832 16 2 laps 4:10.168 1:59.026 8 46.2
28 117 Ekerold, Stefan GER DMSB Suzuki 32:49.511 15 3 laps 1 lap 1:57.044 7 47
29 73 Irt, Peter SLO AMZS Yamaha 28:23.093 11 7 laps 4 laps 2:00.088 6 45.8
30 999 Goncalves, Rui POR FMP Husqvarna 20:06.981 9 9 laps 2 laps 1:55.490 5 47.6
31 84 Herlings, Jeffrey NED KNMV KTM 5:33.116 2 16 laps 7 laps 1:51.392 2 49.4

 

MX2

Pos Nr Rider Nat. Fed. Bike Time laps Diff. First Diff. Prev. Bestlaptime in lap Speed
1 64 Covington, Thomas USA MUL Husqvarna 34:06.609 17 0:00.000 0:00.000 1:52.452 17 48.9
2 91 Seewer, Jeremy SUI FMS Suzuki 34:06.664 17 0:00.055 0:00.055 1:52.976 3 48.7
3 41 Jonass, Pauls LAT LAMSF KTM 34:28.244 17 0:21.635 0:21.580 1:53.142 4 48.6
4 19 Olsen, Thomas Kjer DEN DMU Husqvarna 34:29.381 17 0:22.772 0:01.137 1:53.541 3 48.5
5 61 Prado Garcia, Jorge ESP RFME KTM 34:31.066 17 0:24.457 0:01.685 1:53.003 2 48.7
6 96 Lawrence, Hunter AUS MA Suzuki 34:31.420 17 0:24.811 0:00.354 1:52.740 2 48.8
7 6 Paturel, Benoit FRA FFM Yamaha 34:31.801 17 0:25.192 0:00.381 1:53.276 11 48.6
8 426 Mewse, Conrad GBR ACU Husqvarna 34:42.521 17 0:35.912 0:10.720 1:53.419 11 48.5
9 57 Sanayei, Darian USA AMA Kawasaki 34:44.812 17 0:38.203 0:02.291 1:54.728 5 48
10 10 Vlaanderen, Calvin NED KNMV KTM 34:51.554 17 0:44.945 0:06.742 1:54.545 6 48
11 747 Cervellin, Michele ITA FMI Honda 34:56.483 17 0:49.874 0:04.929 1:54.222 6 48.2
12 46 Pootjes, Davy NED KNMV KTM 35:02.044 17 0:55.435 0:05.561 1:55.273 7 47.7
13 172 Van doninck, Brent BEL FMB Yamaha 35:03.778 17 0:57.169 0:01.734 1:54.646 8 48
14 189 Bogers, Brian NED KNMV KTM 35:05.233 17 0:58.624 0:01.455 1:55.235 3 47.7
15 81 Hsu, Brian GER MAMS Husqvarna 35:08.031 17 1:01.422 0:02.798 1:55.376 8 47.7
16 297 Gole, Anton SWE SVEMO TM 35:09.798 17 1:03.189 0:01.767 1:55.966 7 47.4
17 919 Watson, Ben GBR ACU KTM 35:14.304 17 1:07.695 0:04.506 1:55.220 13 47.8
18 76 Fernandez, Ruben ESP RFME Kawasaki 35:19.383 17 1:12.774 0:05.079 1:56.364 13 47.3
19 161 Östlund, Alvin SWE SVEMO Yamaha 35:23.303 17 1:16.694 0:03.920 1:56.447 11 47.3
20 29 Jacobi, Henry GER DMSB Husqvarna 35:24.516 17 1:17.907 0:01.213 1:55.812 6 47.5
21 44 Lesiardo, Morgan ITA FMI Kawasaki 35:29.562 17 1:22.953 0:05.046 1:56.827 10 47.1
22 67 Klingsheim, Magne NOR NMF Kawasaki 35:53.160 17 1:46.551 0:23.598 1:57.214 7 46.9
23 118 Rubini, Stephen FRA FFM Kawasaki 35:58.523 17 1:51.914 0:05.363 1:57.778 8 46.7
24 107 van Berkel, Lars NED KNMV Husqvarna 36:00.804 17 1:54.195 0:02.281 1:57.716 7 46.7
25 199 Zaragoza, Jorge ESP RFME Yamaha 34:09.422 16 1 lap 1 lap 1:58.687 8 46.4
26 42 Natzke, Josiah NZL ACU KTM 34:14.379 16 1 lap 0:04.957 1:58.698 9 46.4
27 83 Renkens, Nathan BEL FMB KTM 34:16.133 16 1 lap 0:01.754 1:58.338 10 46.5
28 692 Karlsson, Danne SWE SVEMO Husqvarna 34:39.385 16 1 lap 0:23.252 1:58.302 2 46.5
29 223 Tropepe, Giuseppe ITA FMI Husqvarna 34:53.918 16 1 lap 0:14.533 1:57.110 11 47
30 124 Ubach, Simeo ESP RFME KTM 34:57.518 16 1 lap 0:03.600 2:00.365 2 45.7
31 101 Pichon, Zachary FRA FFM Suzuki 35:23.522 16 1 lap 0:26.004 1:57.113 3 47
32 95 De Waal, Micha-Boy NED KNMV Honda 18:12.189 8 9 laps 8 laps 1:58.696 3 46.4
33 33 Lieber, Julien BEL FMB KTM 7:26.851 2 15 laps 6 laps 1:56.889 1 47.1

 

EMX 150

Pos Nr Rider Nat. Fed. Bike Time laps Diff. First Diff. Prev. Bestlaptime in lap Speed
1 10 Adamo, Andrea ITA FMI Honda 26:22.577 10 0:00.000 0:00.000 2:18.794 1 39.6
2 47 Outeiro, Luis POR FMP Honda 26:34.729 10 0:12.152 0:12.152 2:19.100 1 39.5
3 66 Nordström Graaf, Anton SWE SVEMO Honda 27:23.087 10 1:00.510 0:48.358 2:25.736 2 37.7
4 7 Moen, Rasmus SWE SVEMO Honda 27:29.769 10 1:07.192 0:06.682 2:26.068 1 37.7
5 11 Stuurman, Kjeld NED KNMV Honda 27:38.472 10 1:15.895 0:08.703 2:25.846 1 37.7
6 84 Valk, Lynn NED KNMV Honda 27:44.429 10 1:21.852 0:05.957 2:23.445 1 38.3
7 48 Kishi, Toa JPN MFJ Honda 28:17.959 10 1:55.382 0:33.530 2:24.787 1 38
8 94 Hermans, Senne BEL FMB Honda 28:47.472 10 2:24.895 0:29.513 2:32.508 1 36.1
9 4 Bengtson, Melwin SWE SVEMO Honda 28:50.637 10 2:28.060 0:03.165 2:31.920 3 36.2
10 9 Aaltonen, Verneri FIN SML Honda 26:28.367 9 1 lap 1 lap 2:33.671 5 35.8
11 19 Ferreira, Ruben POR FMP Honda 27:07.204 9 1 lap 0:38.837 2:35.034 2 35.5
12 77 Sammut, Tobias GBR ACU Honda 28:23.079 9 1 lap 1:15.875 2:32.676 1 36
13 63 Honda, Shiaru JPN MFJ Honda 28:31.725 9 1 lap 0:08.646 2:45.129 2 33.3
14 50 Rosell, Carles ESP RFME Honda 28:37.533 9 1 lap 0:05.808 2:42.899 1 33.8
15 55 Ritrovato, Wannes BEL FMB Honda 29:10.772 9 1 lap 0:33.239 2:42.536 3 33.8
16 95 Hermans, Rune BEL FMB Honda 29:13.392 9 1 lap 0:02.620 2:38.213 3 34.8
17 68 Nordström Graaf, Ville SWE SVEMO Honda 29:41.745 9 1 lap 0:28.353 2:35.835 1 35.3
18 18 Vassgaard, Magnus NOR NMF Honda 26:37.366 8 2 laps 1 lap 2:27.472 1 37.3
19 35 Bijtjes, Boaz NED KNMV Honda 27:28.630 8 2 laps 0:51.264 2:36.480 5 35.1
20 13 McCarthy, Charlie IRL MCUI Honda 28:03.059 8 2 laps 0:34.429 2:59.304 2 30.7
21 70 Boet, Pol ESP RFME Honda 29:34.884 8 2 laps 1:31.825 3:05.634 1 29.6
22 72 Roca, Oriol ESP RFME Honda 22:51.209 7 3 laps 1 lap 2:39.267 1 34.5
23 5 Youngberry, Marcus AUS MA Honda 18:15.271 6 4 laps 1 lap 2:33.565 3 35.8
24 85 Valk, Cas NED KNMV Honda 19:51.508 6 4 laps 1:36.237 2:36.235 4 35.2
25 21 Kessen , Nyls BEL FMB Honda 21:18.488 6 4 laps 1:26.980 2:44.692 1 33.4
26 17 Chetcuti, Teo SUI FMS Honda 28:53.281 6 4 laps 7:34.793 2:49.924 2 32.4

 

EMX 125

Pos Nr Rider Nat. Fed. Bike Time laps Diff. First Diff. Prev. Bestlaptime in lap Speed
1 722 Haarup, Mikkel DEN DMU Husqvarna 29:18.526 13 0:00.000 0:00.000 2:02.676 6 44.8
2 225 Strubhart Moreau, Brian FRA FFM KTM 29:26.224 13 0:07.698 0:07.698 2:02.806 6 44.8
3 24 Horgmo, Kevin NOR NMF KTM 29:31.259 13 0:12.733 0:05.035 2:04.292 3 44.3
4 22 Facchetti, Gianluca ITA FMI Husqvarna 29:41.542 13 0:23.016 0:10.283 2:05.087 6 44
5 711 Hofer, Rene AUT OeAMTC KTM 29:41.999 13 0:23.473 0:00.457 2:05.215 6 43.9
6 98 Benistant, Thibault FRA FFM Yamaha 29:52.256 13 0:33.730 0:10.257 2:05.745 7 43.8
7 71 Mills, Christopher GBR ACU Yamaha 29:59.910 13 0:41.384 0:07.654 2:06.270 12 43.6
8 101 Guadagnini, Mattia ITA FMI TM 30:00.482 13 0:41.956 0:00.572 2:06.108 10 43.6
9 14 Sydow, Jeremy GER DMSB KTM 30:08.904 13 0:50.378 0:08.422 2:06.384 11 43.5
10 16 Edberg, Tim SWE SVEMO Yamaha 30:13.910 13 0:55.384 0:05.006 2:06.733 10 43.4
11 468 Olsson, Filip SWE SVEMO Husqvarna 30:20.770 13 1:02.244 0:06.860 2:05.950 10 43.7
12 110 Puccinelli, Matteo ITA FMI KTM 30:30.744 13 1:12.218 0:09.974 2:07.399 10 43.2
13 211 Fonvieille, Calvin FRA FFM KTM 30:36.424 13 1:17.898 0:05.680 2:08.646 10 42.8
14 810 Crnjanski, Yann FRA FFM KTM 30:43.089 13 1:24.563 0:06.665 2:08.542 11 42.8
15 11 Manucci, Alessandro ITA FMI Husqvarna 30:45.303 13 1:26.777 0:02.214 2:07.282 3 43.2
16 239 Lion, Florian GER DMSB KTM 30:49.404 13 1:30.878 0:04.101 2:08.628 11 42.8
17 228 Scuteri, Emilio ITA FMI KTM 30:52.253 13 1:33.727 0:02.849 2:07.633 9 43.1
18 313 Polak, Petr CZE ACCR KTM 30:55.790 13 1:37.264 0:03.537 2:08.034 10 43
19 464 Hakansson, Rasmus SWE SVEMO Yamaha 31:12.827 13 1:54.301 0:17.037 2:10.968 5 42
20 427 Fredriksen, Hakon NOR NMF Honda 31:13.887 13 1:55.361 0:01.060 2:10.395 12 42.2
21 81 Meuwissen, Raf NED KNMV KTM 31:16.665 13 1:58.139 0:02.778 2:10.663 1 42.1
22 520 Hagman, Edvin SWE SVEMO KTM 31:18.406 13 1:59.880 0:01.741 2:09.630 11 42.4
23 45 Kurvinen, Aleksi FIN SML KTM 31:21.385 13 2:02.859 0:02.979 2:10.069 11 42.3
24 10 Dankers, Raivo NED KNMV KTM 31:22.592 13 2:04.066 0:01.207 2:11.049 9 42
25 505 Lüning, Arvid SWE SVEMO Yamaha 31:22.906 13 2:04.380 0:00.314 2:08.505 11 42.8
26 292 Gamboa Montero , Alex ESP RFME Yamaha 31:28.617 13 2:10.091 0:05.711 2:10.932 10 42
27 302 Tondel, Cornelius NOR NMF Husqvarna 29:35.500 12 1 lap 1 lap 2:11.160 2 41.9
28 25 Del Coco, Matteo ITA FMI Husqvarna 29:40.580 12 1 lap 0:05.080 2:12.029 5 41.7
29 511 Johansson, Hugo SWE SVEMO Yamaha 29:46.475 12 1 lap 0:05.895 2:14.211 8 41
30 91 Gwerder, Mike SUI FMS KTM 29:49.383 12 1 lap 0:02.908 2:12.679 5 41.5
31 244 Buelow, Max GER DMSB KTM 30:02.622 12 1 lap 0:13.239 2:13.648 3 41.2
32 799 Talviku, Jorgen-Matthias EST EMF Yamaha 30:06.191 12 1 lap 0:03.569 2:14.404 5 40.9
33 70 Spies, Maximilian GER DMSB Husqvarna 30:13.222 12 1 lap 0:07.031 2:14.686 7 40.8
34 491 Persson, Elias SWE SVEMO KTM 30:18.901 12 1 lap 0:05.679 2:14.906 3 40.8
35 727 Gredinger , Marcus SWE SVEMO Husqvarna 30:40.395 12 1 lap 0:21.494 2:16.196 3 40.4
36 517 Gifting, Isak SWE SVEMO KTM 25:58.065 11 2 laps 1 lap 2:03.485 3 44.6
37 84 van der Voorn, Boyd NED KNMV Husqvarna 22:01.913 7 6 laps 4 laps 2:16.174 2 40.4
38 19 Zanotti, Andrea SMR FSM KTM 8:25.795 3 10 laps 4 laps 2:05.438 3 43.9
39 100 Verhaeghe, Scotty FRA FFM KTM 2:36.299 0 13 laps 3 laps 0:00.000   0
40 28 Einarsson, Adam SWE SVEMO TM 0:00.000 -1 14 laps 1 lap 0:00.000   0

Source : MXGP

Loading...